Current Conditions
Mostly Cloudy
Conditions



Pressure
1016.92 (hPa) - 30.03 (inHG)
Visibility

6.2 (mimiles) - 10.0 (km)
   Temperature
15  °C
59°F
12  °C
Dewpoint
82  %
 Humidity
   Wind Speed
12  mph
10  kts
19  km/h
5.4  m/s
   Wind Direction
 220°
South West
   Airport Data
EGOS
Location RAF Shawbury 24 mi (38.62 km)
Metar :EGOS 210650Z AUTO 22010KT 9999 BKN050/// 15/12 Q1017
Sun 21st July 06:50 am
   Raw Metar Info
Raw METAR is the most common format in the world for the transmission of observational weather data. It is highly standardized through the International Civil Aviation Organization (ICAO), which allows it to be understood throughout most of the world.
   API Info
Data Provided by
https://www.checkwx.com/weather/EGOS
   © Info
CSS/SVG/PHP scripts were developed by weather34.com for use in the weather34 template © 2015-2019

Guide Info provided by Metar-Wikipedia